createdAt,value
2018-11-27T05:01:05.099Z,79.03
2018-11-27T05:03:27.797Z,67.23
2018-11-27T05:05:50.454Z,77.30
2018-11-27T05:08:13.089Z,78.50
2018-11-27T05:10:35.750Z,87.07
2018-11-27T05:12:58.425Z,84.00
2018-11-27T06:01:39.034Z,68.23
2018-11-27T06:04:01.760Z,62.83
2018-11-27T06:06:24.418Z,65.93
2018-11-27T06:08:47.122Z,75.83
2018-11-27T06:11:09.841Z,80.67
2018-11-27T06:13:32.525Z,70.63
2018-11-27T07:02:14.510Z,39.67
2018-11-27T07:04:37.233Z,45.30
2018-11-27T07:06:59.933Z,45.30
2018-11-27T07:09:23.039Z,40.63
2018-11-27T07:11:45.766Z,37.63
2018-11-27T07:14:08.447Z,42.23
2018-11-27T08:02:38.186Z,42.37
2018-11-27T08:05:00.930Z,38.97
2018-11-27T08:07:23.675Z,39.67
2018-11-27T08:09:46.378Z,46.70
2018-11-27T08:12:09.073Z,39.00
2018-11-27T08:14:31.738Z,41.20
2018-11-27T09:00:15.898Z,40.63
2018-11-27T09:02:38.570Z,37.17
2018-11-27T09:05:01.249Z,40.70
2018-11-27T09:07:23.920Z,40.93
2018-11-27T09:09:46.597Z,43.60
2018-11-27T09:12:09.285Z,45.60
2018-11-27T09:14:31.941Z,42.13
2018-11-27T10:00:17.963Z,38.97
2018-11-27T10:02:40.661Z,41.93
2018-11-27T10:05:03.481Z,42.07
2018-11-27T10:10:24.805Z,35.97
2018-11-27T10:12:47.504Z,39.30
2018-11-27T11:01:31.878Z,37.90
2018-11-27T11:03:54.558Z,34.17
2018-11-27T11:06:17.222Z,40.53
2018-11-27T11:08:39.929Z,40.63
2018-11-27T11:11:02.645Z,35.73
2018-11-27T11:13:25.287Z,37.77
2018-11-27T12:02:05.037Z,40.47
2018-11-27T12:04:27.741Z,41.50
2018-11-27T12:06:50.382Z,37.10
2018-11-27T12:09:13.158Z,38.57
2018-11-27T12:11:35.839Z,36.30
2018-11-27T12:13:58.489Z,37.43
2018-11-27T13:02:36.737Z,37.33
2018-11-27T13:04:59.477Z,39.50
2018-11-27T13:07:22.149Z,43.83
2018-11-27T13:09:44.818Z,40.67
2018-11-27T13:12:07.526Z,39.60
2018-11-27T13:14:30.182Z,49.13
2018-11-27T14:00:17.902Z,43.43
2018-11-27T14:02:41.862Z,40.03
2018-11-27T14:05:07.142Z,45.27
2018-11-27T14:07:29.881Z,45.13
2018-11-27T14:09:52.539Z,46.10
2018-11-27T14:12:15.215Z,46.17
2018-11-27T14:14:37.920Z,52.50
2018-11-27T15:00:18.243Z,42.97
2018-11-27T15:02:40.954Z,40.33
2018-11-27T15:05:03.911Z,43.77
2018-11-27T15:07:26.574Z,51.47
2018-11-27T15:09:49.253Z,49.97
2018-11-27T15:12:11.959Z,43.50
2018-11-27T15:14:34.661Z,47.37
2018-11-27T16:00:19.478Z,44.90
2018-11-27T16:02:43.017Z,49.77
2018-11-27T16:05:05.880Z,47.53
2018-11-27T16:07:28.542Z,50.97
2018-11-27T16:09:51.206Z,43.97
2018-11-27T16:12:14.071Z,48.33
2018-11-27T16:14:36.821Z,52.73
2018-11-27T17:00:15.397Z,59.07
2018-11-27T17:02:38.138Z,58.03
2018-11-27T17:05:00.873Z,53.27
2018-11-27T17:07:23.573Z,53.33
2018-11-27T17:09:46.297Z,48.30
2018-11-27T17:12:08.969Z,50.60
2018-11-27T17:14:31.641Z,46.20
2018-11-27T18:00:23.371Z,69.47
2018-11-27T18:02:48.733Z,59.07
2018-11-27T18:05:11.405Z,67.50
2018-11-27T18:07:34.783Z,57.60
2018-11-27T18:31:12.141Z,63.57
2018-11-27T18:33:35.129Z,64.13
2018-11-27T18:35:58.018Z,61.37
2018-11-27T18:38:20.960Z,60.73
2018-11-27T18:40:43.925Z,56.20
2018-11-27T18:43:06.866Z,59.17
2018-11-27T18:45:31.080Z,57.27
2018-11-27T18:47:53.910Z,57.83
2018-11-27T18:50:16.831Z,62.43
2018-11-27T18:52:39.958Z,56.37
2018-11-27T18:55:02.788Z,65.20
2018-11-27T18:57:25.564Z,66.07
2018-11-27T18:59:48.394Z,61.97
2018-11-27T19:02:11.172Z,60.13
2018-11-27T19:04:33.920Z,64.57
2018-11-27T19:06:56.601Z,60.93
2018-11-27T19:09:19.358Z,60.70
2018-11-27T19:11:42.149Z,58.43
2018-11-27T19:14:05.456Z,64.17
2018-11-27T19:16:28.229Z,63.17
2018-11-27T20:07:43.277Z,62.60
2018-11-27T20:10:08.193Z,65.87
2018-11-27T20:12:30.987Z,64.23
2018-11-27T20:14:53.776Z,62.27
2018-11-27T21:00:32.865Z,63.77
2018-11-27T21:02:57.514Z,60.87
2018-11-27T21:05:20.237Z,65.27
2018-11-27T21:07:42.921Z,71.67
2018-11-27T21:10:09.386Z,66.70
2018-11-27T21:12:32.049Z,72.40
2018-11-27T21:14:54.730Z,69.83
